Time;durP1;ratioP1;P1;durP2;ratioP2;P2;SDS_P1;SDS_P2;PMS_P1;PMS_P2;Temp;Humidity;BMP_temperature;BMP_pressure;BME280_temperature;BME280_humidity;BME280_pressure;Samples;Min_cycle;Max_cycle;Signal;HPM_P1;HPM_P2
2023/12/22 00:02:09;;;;;;;5.07;1.90;;;20.70;55.50;;;;;;5031675;28;20045;-31
2023/12/22 00:04:36;;;;;;;5.22;1.98;;;20.50;75.30;;;;;;5031642;28;20088;-30
2023/12/22 00:07:03;;;;;;;4.03;1.63;;;;;;;;;;5031552;28;20056;-28
2023/12/22 00:09:30;;;;;;;5.80;1.70;;;;;;;;;;5031679;28;20049;-31
2023/12/22 00:11:58;;;;;;;3.35;1.52;;;20.60;49.90;;;;;;5031014;28;20049;-28
2023/12/22 00:14:25;;;;;;;4.85;1.75;;;;;;;;;;5031185;28;20103;-30
2023/12/22 00:16:52;;;;;;;5.32;1.95;;;21.10;75.60;;;;;;5031303;28;20545;-32
2023/12/22 00:19:19;;;;;;;3.83;1.70;;;;;;;;;;5032639;28;20477;-29
2023/12/22 00:21:46;;;;;;;6.50;2.00;;;19.80;75.00;;;;;;5051581;28;20049;-26
2023/12/22 00:24:14;;;;;;;4.78;1.52;;;;;;;;;;5050680;28;20541;-27
2023/12/22 00:26:41;;;;;;;3.55;1.52;;;20.70;75.60;;;;;;5051045;28;20064;-28
2023/12/22 00:29:09;;;;;;;4.05;1.60;;;;;;;;;;5050894;28;20045;-30
2023/12/22 00:31:36;;;;;;;3.50;1.40;;;;;;;;;;5051110;28;20052;-31
2023/12/22 00:34:04;;;;;;;5.63;2.10;;;;;;;;;;5050768;28;20053;-34
2023/12/22 00:36:30;;;;;;;7.68;1.90;;;20.60;75.30;;;;;;5055764;28;20098;-33
2023/12/22 00:38:58;;;;;;;4.28;1.70;;;;;;;;;;5071186;28;20049;-35
2023/12/22 00:41:24;;;;;;;5.10;1.80;;;20.50;51.50;;;;;;5057650;28;20122;-32
2023/12/22 00:43:52;;;;;;;3.25;1.40;;;;;;;;;;5051009;28;20053;-31
2023/12/22 00:46:20;;;;;;;4.47;1.67;;;;;;;;;;5050978;28;20115;-30
2023/12/22 00:48:47;;;;;;;5.82;1.80;;;20.80;75.30;;;;;;5050683;28;20129;-31
2023/12/22 00:51:16;;;;;;;5.40;2.10;;;;;;;;;;5050956;28;20052;-31
2023/12/22 00:53:43;;;;;;;4.43;1.55;;;;;;;;;;5050696;28;20509;-27
2023/12/22 00:56:13;;;;;;;4.93;2.22;;;;;;;;;;5050063;28;20056;-26
2023/12/22 00:58:40;;;;;;;4.65;1.80;;;20.50;76.10;;;;;;5050833;28;20049;-26
2023/12/22 01:01:07;;;;;;;4.18;1.58;;;;;;;;;;5050769;28;20068;-27
2023/12/22 01:03:35;;;;;;;4.60;1.50;;;20.60;49.70;;;;;;5050917;28;20041;-26
2023/12/22 01:06:02;;;;;;;4.53;1.60;;;20.60;69.40;;;;;;5050488;28;20110;-27
2023/12/22 01:08:29;;;;;;;3.78;1.60;;;;;;;;;;5050432;28;20118;-28
2023/12/22 01:10:56;;;;;;;4.43;1.55;;;20.60;75.40;;;;;;5053446;28;20049;-26
2023/12/22 01:13:23;;;;;;;4.18;1.88;;;21.90;76.70;;;;;;5054543;28;20052;-26
2023/12/22 01:15:50;;;;;;;5.75;1.83;;;;;;;;;;5054454;28;20057;-26
2023/12/22 01:18:17;;;;;;;4.80;1.73;;;;;;;;;;5054658;28;20045;-34
2023/12/22 01:20:45;;;;;;;4.05;1.50;;;;;;;;;;5041450;28;20111;-33
2023/12/22 01:23:13;;;;;;;3.88;1.60;;;;;;;;;;5034616;28;20418;-33
2023/12/22 01:25:40;;;;;;;3.88;1.40;;;;;;;;;;5034201;28;20100;-31
2023/12/22 01:28:07;;;;;;;4.30;1.60;;;21.30;75.50;;;;;;5034605;28;20049;-34
2023/12/22 01:30:33;;;;;;;3.22;1.58;;;20.60;51.00;;;;;;5034429;28;20115;-33
2023/12/22 01:33:01;;;;;;;3.15;1.60;;;;;;;;;;5034480;28;20103;-32
2023/12/22 01:35:28;;;;;;;3.30;1.20;;;;;;;;;;5034341;28;20095;-28
2023/12/22 01:37:57;;;;;;;3.70;1.50;;;;;;;;;;5047145;28;20413;-27
2023/12/22 01:40:24;;;;;;;3.45;1.60;;;;;;;;;;5054281;28;20132;-27
2023/12/22 01:42:51;;;;;;;3.92;1.67;;;;;;;;;;5053933;28;20049;-27
2023/12/22 01:45:19;;;;;;;4.38;1.63;;;;;;;;;;5054275;28;20111;-27
2023/12/22 01:47:46;;;;;;;4.43;1.58;;;;;;;;;;5053964;28;20094;-26
2023/12/22 01:50:13;;;;;;;3.45;1.52;;;20.40;74.80;;;;;;5054082;28;20460;-27
2023/12/22 01:52:40;;;;;;;3.22;1.52;;;;;;;;;;5054092;28;20461;-26
2023/12/22 01:55:10;;;;;;;3.95;1.40;;;;;;;;;;5053838;28;20095;-26
2023/12/22 01:57:37;;;;;;;3.80;1.42;;;20.30;75.80;;;;;;5053902;28;20049;-27
2023/12/22 02:00:05;;;;;;;3.75;1.42;;;20.10;49.20;;;;;;5053983;28;20131;-27
2023/12/22 02:02:32;;;;;;;4.97;1.55;;;;;;;;;;5053602;28;20063;-29
2023/12/22 02:04:59;;;;;;;5.28;1.55;;;20.80;75.50;;;;;;5053467;28;20052;-32
2023/12/22 02:07:27;;;;;;;5.50;1.70;;;;;;;;;;5053726;28;20049;-27
2023/12/22 02:09:54;;;;;;;2.67;1.48;;;;;;;;;;5053745;28;20111;-26
2023/12/22 02:12:22;;;;;;;6.85;2.10;;;;;;;;;;5053588;28;20398;-27
2023/12/22 02:14:49;;;;;;;3.40;1.65;;;20.70;71.40;;;;;;5053227;28;20052;-27
2023/12/22 02:17:21;;;;;;;3.95;1.40;;;;;;;;;;5053208;28;20049;-27
2023/12/22 02:19:49;;;;;;;4.25;1.60;;;;;;;;;;5048124;28;20041;-26
2023/12/22 02:22:15;;;;;;;4.28;1.77;;;21.40;76.20;;;;;;5033358;28;20103;-26
2023/12/22 02:24:44;;;;;;;3.28;1.60;;;;;;;;;;5033289;28;20062;-27
2023/12/22 02:27:18;;;;;;;4.32;1.65;;;20.60;49.30;;;;;;5033452;28;20396;-28
2023/12/22 02:29:48;;;;;;;4.35;1.50;;;;;;;;;;5033133;28;20115;-31
2023/12/22 02:32:19;;;;;;;5.32;1.63;;;;;;;;;;5033441;28;20077;-32
2023/12/22 02:34:45;;;;;;;4.68;1.48;;;20.60;65.10;;;;;;5072791;28;20048;-27
2023/12/22 02:37:13;;;;;;;4.25;1.45;;;;;;;;;;5072657;28;20052;-28
2023/12/22 02:39:42;;;;;;;4.78;1.65;;;;;;;;;;5073166;28;20114;-28
2023/12/22 02:42:10;;;;;;;4.35;1.50;;;20.60;49.20;;;;;;5072909;28;20130;-26
2023/12/22 02:44:37;;;;;;;4.80;1.75;;;;;;;;;;5072502;28;20505;-26
2023/12/22 02:47:04;;;;;;;4.75;1.70;;;20.70;75.00;;;;;;5073102;28;20494;-26
2023/12/22 02:49:32;;;;;;;3.83;1.60;;;;;;;;;;5073049;28;20106;-25
2023/12/22 02:51:58;;;;;;;5.50;1.50;;;19.80;75.10;;;;;;5072739;28;20490;-26
2023/12/22 02:54:28;;;;;;;4.38;1.80;;;;;;;;;;5072447;28;20048;-26
2023/12/22 02:56:54;;;;;;;3.22;1.40;;;19.80;74.40;;;;;;5072818;28;20086;-25
2023/12/22 02:59:23;;;;;;;3.17;1.35;;;;;;;;;;5072657;28;20056;-27
2023/12/22 03:01:50;;;;;;;6.30;1.80;;;;;;;;;;5072648;28;20106;-28
2023/12/22 03:04:18;;;;;;;4.60;1.70;;;19.60;74.50;;;;;;5072727;28;20049;-33
2023/12/22 03:06:45;;;;;;;3.80;1.40;;;;;;;;;;5072633;28;20129;-29
2023/12/22 03:09:12;;;;;;;3.63;1.50;;;;;;;;;;5072756;28;20048;-25
2023/12/22 03:11:39;;;;;;;3.55;1.45;;;;;;;;;;5072618;28;20118;-25
2023/12/22 03:14:06;;;;;;;3.47;1.50;;;;;;;;;;5072246;28;20040;-25
2023/12/22 03:16:35;;;;;;;2.97;1.30;;;;;;;;;;5072250;28;20182;-25
2023/12/22 03:19:02;;;;;;;2.60;1.50;;;21.10;75.00;;;;;;5057596;28;20568;-25
2023/12/22 03:21:29;;;;;;;3.53;1.50;;;;;;;;;;5033254;28;20046;-27
2023/12/22 03:23:56;;;;;;;3.33;1.40;;;20.40;74.90;;;;;;5031976;28;20053;-25
2023/12/22 03:26:23;;;;;;;5.55;1.90;;;;;;;;;;5032156;28;20107;-30
2023/12/22 03:28:50;;;;;;;3.20;1.50;;;20.80;75.70;;;;;;5036285;28;20057;-25
2023/12/22 03:31:17;;;;;;;3.70;1.50;;;;;;;;;;5072205;28;20056;-26
2023/12/22 03:33:45;;;;;;;3.97;1.55;;;20.50;49.00;;;;;;5070998;28;20049;-26
2023/12/22 03:36:12;;;;;;;3.13;1.50;;;;;;;;;;5071634;28;20106;-31
2023/12/22 03:38:39;;;;;;;3.00;1.23;;;;;;;;;;5071656;28;20109;-29
2023/12/22 03:41:06;;;;;;;3.60;1.42;;;20.60;74.70;;;;;;5072184;28;20074;-31
2023/12/22 03:43:34;;;;;;;3.35;1.50;;;;;;;;;;5071549;28;20101;-28
2023/12/22 03:46:01;;;;;;;4.10;1.63;;;;;;;;;;5071590;28;20048;-26
2023/12/22 03:48:28;;;;;;;4.00;1.40;;;20.60;57.50;;;;;;5071587;28;20101;-26
2023/12/22 03:50:56;;;;;;;3.15;1.40;;;20.60;49.00;;;;;;5071894;28;20444;-26
2023/12/22 03:53:23;;;;;;;3.80;1.50;;;;;;;;;;5071694;28;20057;-32
2023/12/22 03:55:50;;;;;;;2.83;1.27;;;20.50;51.00;;;;;;5071097;28;20086;-33
2023/12/22 03:58:17;;;;;;;3.47;1.50;;;19.40;66.40;;;;;;5071887;28;20056;-32
2023/12/22 04:00:44;;;;;;;2.72;1.40;;;;;;;;;;5071465;28;20695;-33
2023/12/22 04:03:11;;;;;;;3.78;1.60;;;20.20;74.70;;;;;;5071471;28;20436;-35
2023/12/22 04:05:38;;;;;;;4.03;1.73;;;;;;;;;;5071126;28;20048;-33
2023/12/22 04:08:07;;;;;;;2.97;1.27;;;;;;;;;;5071473;28;20052;-34
2023/12/22 04:10:34;;;;;;;4.80;1.75;;;;;;;;;;5071538;28;20094;-30
2023/12/22 04:13:01;;;;;;;4.00;1.45;;;20.60;74.60;;;;;;5071310;28;20048;-28
2023/12/22 04:15:28;;;;;;;3.90;1.40;;;;;;;;;;5071220;28;20102;-31
2023/12/22 04:17:55;;;;;;;5.28;1.20;;;;;;;;;;5070698;28;20098;-30
2023/12/22 04:20:23;;;;;;;3.90;1.33;;;;;;;;;;5061404;28;20052;-25
2023/12/22 04:22:51;;;;;;;3.67;1.40;;;;;;;;;;5051058;28;20131;-29
2023/12/22 04:25:19;;;;;;;2.80;1.27;;;20.50;48.80;;;;;;5054852;28;20091;-28
2023/12/22 04:27:46;;;;;;;2.75;1.30;;;;;;;;;;5070933;28;20486;-27
2023/12/22 04:30:13;;;;;;;3.67;1.20;;;;;;;;;;5071043;28;20491;-29
2023/12/22 04:32:41;;;;;;;5.82;1.42;;;;;;;;;;5070868;28;20044;-30
2023/12/22 04:35:08;;;;;;;3.90;1.20;;;20.60;74.50;;;;;;5070782;28;20048;-31
2023/12/22 04:37:35;;;;;;;5.57;1.70;;;;;;;;;;5070560;28;20048;-28
2023/12/22 04:40:02;;;;;;;2.78;1.20;;;;;;;;;;5070634;28;20497;-30
2023/12/22 04:42:31;;;;;;;2.40;1.30;;;;;;;;;;5070887;28;20049;-32
2023/12/22 04:44:58;;;;;;;3.20;1.17;;;20.70;74.70;;;;;;5070578;28;20498;-26
2023/12/22 04:47:25;;;;;;;3.33;1.42;;;;;;;;;;5070868;28;20051;-26
2023/12/22 04:49:52;;;;;;;3.83;1.52;;;;;;;;;;5070932;28;20048;-26
2023/12/22 04:52:20;;;;;;;3.58;1.20;;;;;;;;;;5070629;28;20048;-29
2023/12/22 04:54:47;;;;;;;3.30;1.30;;;;;;;;;;5070636;28;20102;-29
2023/12/22 04:57:14;;;;;;;3.08;1.33;;;;;;;;;;5070772;28;20131;-27
2023/12/22 04:59:42;;;;;;;3.45;1.25;;;20.60;48.80;;;;;;5070586;28;20052;-26
2023/12/22 05:02:09;;;;;;;4.85;1.48;;;;;;;;;;5070465;28;20056;-27
2023/12/22 05:04:37;;;;;;;4.50;1.52;;;;;;;;;;5070604;28;20086;-27
2023/12/22 05:07:06;;;;;;;3.35;1.33;;;;;;;;;;5070648;28;20048;-32
2023/12/22 05:09:34;;;;;;;2.47;1.20;;;;;;;;;;5070788;28;20053;-30
2023/12/22 05:12:00;;;;;;;3.30;1.30;;;21.40;75.10;;;;;;5070238;28;20094;-32
2023/12/22 05:14:28;;;;;;;5.07;1.65;;;;;;;;;;5070102;28;20078;-33
2023/12/22 05:16:56;;;;;;;3.28;1.23;;;;;;;;;;5070696;28;20049;-31
2023/12/22 05:19:23;;;;;;;3.75;1.50;;;20.70;74.50;;;;;;5068718;28;20218;-26
2023/12/22 05:21:52;;;;;;;3.17;1.35;;;;;;;;;;5056538;28;20578;-28
2023/12/22 05:24:20;;;;;;;3.33;1.30;;;;;;;;;;5070366;28;20052;-25
2023/12/22 05:26:47;;;;;;;3.92;1.33;;;;;;;;;;5070353;28;20079;-30
2023/12/22 05:29:14;;;;;;;2.13;1.02;;;;;;;;;;5070258;28;20048;-25
2023/12/22 05:31:41;;;;;;;4.15;1.70;;;20.40;60.70;;;;;;5070463;28;20044;-27
2023/12/22 05:34:10;;;;;;;3.42;1.60;;;;;;;;;;5070588;28;20049;-31
2023/12/22 05:36:37;;;;;;;4.18;1.58;;;;;;;;;;5069552;28;20040;-31
2023/12/22 05:39:04;;;;;;;3.25;1.33;;;;;;;;;;5070404;28;20501;-25
2023/12/22 05:41:31;;;;;;;5.22;1.63;;;;;;;;;;5069939;28;20436;-26
2023/12/22 05:43:58;;;;;;;3.35;1.50;;;;;;;;;;5052266;28;20467;-26
2023/12/22 05:46:25;;;;;;;4.90;1.73;;;20.80;68.80;;;;;;5070391;28;20520;-27
2023/12/22 05:48:52;;;;;;;5.57;1.73;;;;;;;;;;5070253;28;20570;-27
2023/12/22 05:51:21;;;;;;;4.80;1.67;;;;;;;;;;5070125;28;20485;-30
2023/12/22 05:53:48;;;;;;;3.28;1.48;;;20.70;75.20;;;;;;5070059;28;20113;-30
2023/12/22 05:56:19;;;;;;;3.90;1.52;;;;;;;;;;5071043;28;20717;-31
2023/12/22 05:58:46;;;;;;;3.83;1.48;;;;;;;;;;5073959;28;20052;-32
2023/12/22 06:01:16;;;;;;;4.95;1.70;;;;;;;;;;5073966;28;20052;-28
2023/12/22 06:03:43;;;;;;;2.60;1.33;;;;;;;;;;5073694;28;20091;-31
2023/12/22 06:06:10;;;;;;;3.63;1.30;;;20.90;58.30;;;;;;5073502;28;20049;-29
2023/12/22 06:08:39;;;;;;;3.50;1.35;;;;;;;;;;5073400;28;20094;-33
2023/12/22 06:11:06;;;;;;;4.88;1.38;;;;;;;;;;5073955;28;20075;-32
2023/12/22 06:13:34;;;;;;;2.85;1.27;;;;;;;;;;5073822;28;20056;-34
2023/12/22 06:16:00;;;;;;;3.90;1.55;;;20.80;74.40;;;;;;5073035;28;20098;-32
2023/12/22 06:18:28;;;;;;;4.10;1.40;;;;;;;;;;5064372;28;20060;-30
2023/12/22 06:20:55;;;;;;;4.93;1.55;;;;;;;;;;5039076;28;20104;-32
2023/12/22 06:23:22;;;;;;;5.05;1.73;;;;;;;;;;5033593;28;20089;-28
2023/12/22 06:25:50;;;;;;;3.88;1.50;;;20.80;48.50;;;;;;5032992;28;20096;-27
2023/12/22 06:28:17;;;;;;;5.30;1.48;;;20.80;74.50;;;;;;5033611;28;20465;-25
2023/12/22 06:30:46;;;;;;;5.32;1.58;;;;;;;;;;5033365;28;20053;-29
2023/12/22 06:33:14;;;;;;;5.15;1.73;;;;;;;;;;5033383;28;20140;-26
2023/12/22 06:35:41;;;;;;;3.45;1.35;;;;;;;;;;5032901;28;20049;-27
2023/12/22 06:38:11;;;;;;;4.00;1.70;;;;;;;;;;5070410;28;20052;-26
2023/12/22 06:40:38;;;;;;;6.10;1.80;;;20.60;74.20;;;;;;5073176;28;20084;-26
2023/12/22 06:43:06;;;;;;;3.60;1.65;;;20.70;48.40;;;;;;5073039;28;20094;-28
2023/12/22 06:45:33;;;;;;;3.45;1.67;;;21.20;50.50;;;;;;5072958;28;20083;-28
2023/12/22 06:48:00;;;;;;;5.03;1.77;;;;;;;;;;5072678;28;20048;-29
2023/12/22 06:50:27;;;;;;;4.32;1.60;;;;;;;;;;5072790;28;20482;-28
2023/12/22 06:52:54;;;;;;;3.88;1.50;;;20.70;74.40;;;;;;5044479;28;20573;-32
2023/12/22 06:55:21;;;;;;;5.07;1.60;;;;;;;;;;5032739;28;20049;-30
2023/12/22 06:57:48;;;;;;;3.88;1.45;;;;;;;;;;5032905;28;20099;-30
2023/12/22 07:00:17;;;;;;;3.95;1.50;;;;;;;;;;5032564;28;20495;-31
2023/12/22 07:02:44;;;;;;;5.30;1.73;;;;;;;;;;5032881;28;20057;-33
2023/12/22 07:05:30;;;;;;;4.80;1.70;;;20.70;48.30;;;;;;5032405;28;20095;-31
2023/12/22 07:07:57;;;;;;;3.97;1.30;;;;;;;;;;5031789;28;20057;-31
2023/12/22 07:10:24;;;;;;;5.18;1.50;;;;;;;;;;5032682;28;20049;-30
2023/12/22 07:12:51;;;;;;;3.15;1.50;;;;;;;;;;5032516;28;20136;-33
2023/12/22 07:15:20;;;;;;;5.25;1.85;;;20.60;48.30;;;;;;5060155;28;20052;-32
2023/12/22 07:17:47;;;;;;;5.05;1.70;;;;;;;;;;5072421;28;20053;-28
2023/12/22 07:20:14;;;;;;;4.22;1.55;;;;;;;;;;5063781;28;20114;-29
2023/12/22 07:22:41;;;;;;;4.13;1.65;;;;;;;;;;5052303;28;20486;-30
2023/12/22 07:25:09;;;;;;;3.47;1.60;;;;;;;;;;5051996;28;20555;-31
2023/12/22 07:27:36;;;;;;;4.18;1.60;;;;;;;;;;5052150;28;20077;-29
2023/12/22 07:30:03;;;;;;;4.47;1.50;;;;;;;;;;5052255;28;20121;-34
2023/12/22 07:32:32;;;;;;;5.07;1.63;;;;;;;;;;5051933;28;20099;-29
2023/12/22 07:34:59;;;;;;;3.10;1.50;;;22.00;75.10;;;;;;5052042;28;20494;-33
2023/12/22 07:37:26;;;;;;;3.38;1.60;;;;;;;;;;5064546;28;20106;-26
2023/12/22 07:39:53;;;;;;;3.63;1.40;;;19.50;73.70;;;;;;5071789;28;20048;-25
2023/12/22 07:42:20;;;;;;;2.83;1.48;;;;;;;;;;5071957;28;20060;-27
2023/12/22 07:44:48;;;;;;;5.25;1.58;;;;;;;;;;5071741;28;20053;-27
2023/12/22 07:47:15;;;;;;;4.00;1.40;;;;;;;;;;5071875;28;20097;-28
2023/12/22 07:49:43;;;;;;;3.50;1.33;;;;;;;;;;5071587;28;20118;-25
2023/12/22 07:52:11;;;;;;;3.15;1.40;;;;;;;;;;5071746;28;20054;-26
2023/12/22 07:54:38;;;;;;;2.80;1.35;;;;;;;;;;5071078;28;20506;-26
2023/12/22 07:57:05;;;;;;;2.90;1.30;;;;;;;;;;5071594;28;20468;-25
2023/12/22 07:59:32;;;;;;;3.08;1.30;;;;;;;;;;5071804;28;20456;-26
2023/12/22 08:01:59;;;;;;;3.45;1.55;;;20.70;49.20;;;;;;5071698;28;20052;-27
2023/12/22 08:04:26;;;;;;;3.40;1.52;;;;;;;;;;5071390;28;20098;-27
2023/12/22 08:06:55;;;;;;;3.30;1.27;;;;;;;;;;5071380;28;20048;-29
2023/12/22 08:09:22;;;;;;;3.50;1.40;;;;;;;;;;5071315;28;20051;-27
2023/12/22 08:11:52;;;;;;;3.00;1.38;;;;;;;;;;5054776;28;20080;-26
2023/12/22 08:14:19;;;;;;;3.15;1.40;;;;;;;;;;5051345;28;20087;-25
2023/12/22 08:16:46;;;;;;;2.97;1.23;;;;;;;;;;5051011;28;20465;-26
2023/12/22 08:19:14;;;;;;;4.63;1.40;;;;;;;;;;5050881;28;20092;-28
2023/12/22 08:21:41;;;;;;;4.03;1.40;;;;;;;;;;5031319;28;20111;-33
2023/12/22 08:24:11;;;;;;;3.65;1.40;;;;;;;;;;5031441;28;20060;-31
2023/12/22 08:26:38;;;;;;;3.03;1.35;;;;;;;;;;5030853;28;20503;-28
2023/12/22 08:29:05;;;;;;;2.35;1.23;;;20.70;74.20;;;;;;5031434;28;20053;-35
2023/12/22 08:31:32;;;;;;;3.10;1.20;;;;;;;;;;5031089;28;20119;-30
2023/12/22 08:33:59;;;;;;;2.90;1.30;;;;;;;;;;5031033;28;20084;-27
2023/12/22 08:36:26;;;;;;;2.85;1.20;;;;;;;;;;5040323;28;20040;-27
2023/12/22 08:38:54;;;;;;;5.28;1.60;;;;;;;;;;5070913;28;20106;-32
2023/12/22 08:41:22;;;;;;;3.78;1.50;;;20.80;48.10;;;;;;5070881;28;20418;-26
2023/12/22 08:43:49;;;;;;;3.45;1.58;;;20.90;51.00;;;;;;5070917;28;20127;-26
2023/12/22 08:46:17;;;;;;;3.13;1.25;;;;;;;;;;5070458;28;20514;-29
2023/12/22 08:48:44;;;;;;;3.53;1.50;;;;;;;;;;5070826;28;20075;-34
2023/12/22 08:51:11;;;;;;;4.20;1.58;;;;;;;;;;5070570;28;20136;-34
2023/12/22 08:53:39;;;;;;;2.35;1.30;;;;;;;;;;5070932;28;20048;-26
2023/12/22 08:56:08;;;;;;;3.22;1.30;;;;;;;;;;5070448;28;20048;-26
2023/12/22 08:58:36;;;;;;;3.92;1.40;;;;;;;;;;5070709;28;20563;-27
2023/12/22 09:01:03;;;;;;;4.88;1.50;;;20.80;48.10;;;;;;5070750;28;20098;-27
2023/12/22 09:03:33;;;;;;;2.90;1.20;;;20.80;48.10;;;;;;5070453;28;20110;-28
2023/12/22 09:06:01;;;;;;;3.65;1.40;;;;;;;;;;5069424;28;20571;-26
2023/12/22 09:08:27;;;;;;;5.70;1.75;;;20.60;50.10;;;;;;5045190;28;20049;-26
2023/12/22 09:10:54;;;;;;;3.97;1.35;;;21.50;57.40;;;;;;5050850;28;20131;-26
2023/12/22 09:13:21;;;;;;;3.70;1.30;;;20.90;49.80;;;;;;5050624;28;20053;-26
2023/12/22 09:15:49;;;;;;;5.05;1.52;;;20.80;48.20;;;;;;5050156;28;20076;-26
2023/12/22 09:18:16;;;;;;;3.25;1.48;;;20.80;64.30;;;;;;5050270;28;20057;-26
2023/12/22 09:20:44;;;;;;;3.88;1.23;;;;;;;;;;5038079;28;20103;-27
2023/12/22 09:23:11;;;;;;;2.92;1.15;;;;;;;;;;5030419;28;20041;-26
2023/12/22 09:25:38;;;;;;;3.92;1.77;;;20.80;56.50;;;;;;5030380;28;20046;-27
2023/12/22 09:28:06;;;;;;;3.55;1.55;;;;;;;;;;5030483;28;20053;-26
2023/12/22 09:30:33;;;;;;;4.40;1.70;;;;;;;;;;5030112;28;20556;-32
2023/12/22 09:33:01;;;;;;;3.08;1.30;;;;;;;;;;5034926;28;20407;-30
2023/12/22 09:35:28;;;;;;;2.65;0.95;;;21.10;73.50;;;;;;5034086;28;20045;-32
2023/12/22 09:37:56;;;;;;;3.92;1.40;;;;;;;;;;5063183;28;20146;-35
2023/12/22 09:40:23;;;;;;;4.82;1.75;;;;;;;;;;5041699;28;20111;-30
2023/12/22 09:42:50;;;;;;;2.40;1.20;;;;;;;;;;5034262;28;20056;-29
2023/12/22 09:45:19;;;;;;;3.70;1.40;;;;;;;;;;5034015;28;20534;-30
2023/12/22 09:47:46;;;;;;;2.55;1.25;;;;;;;;;;5034411;28;20049;-28
2023/12/22 09:50:15;;;;;;;3.45;1.38;;;;;;;;;;5034325;28;20062;-28
2023/12/22 09:52:44;;;;;;;3.03;1.35;;;;;;;;;;5033837;28;20057;-34
2023/12/22 09:55:11;;;;;;;4.53;1.30;;;;;;;;;;5032838;28;20049;-30
2023/12/22 09:57:39;;;;;;;2.47;1.15;;;;;;;;;;5048918;28;20874;-31
2023/12/22 10:00:07;;;;;;;3.03;1.30;;;;;;;;;;5053316;28;20048;-31
2023/12/22 10:02:34;;;;;;;3.85;1.40;;;;;;;;;;5054787;28;20040;-30
2023/12/22 10:05:01;;;;;;;3.05;1.50;;;;;;;;;;5073593;28;20052;-30
2023/12/22 10:07:30;;;;;;;5.03;1.73;;;20.80;48.50;;;;;;5073604;28;20470;-32
2023/12/22 10:09:57;;;;;;;4.90;1.45;;;;;;;;;;5073292;28;20052;-31
2023/12/22 10:12:24;;;;;;;2.75;1.23;;;21.00;53.40;;;;;;5073387;28;20049;-30
2023/12/22 10:14:51;;;;;;;2.72;1.20;;;;;;;;;;5073258;28;20052;-29
2023/12/22 10:17:18;;;;;;;4.38;1.23;;;;;;;;;;5073182;28;20056;-31
2023/12/22 10:19:45;;;;;;;2.97;1.30;;;;;;;;;;5068302;28;20044;-28
2023/12/22 10:22:12;;;;;;;2.97;1.30;;;21.90;74.60;;;;;;5053400;28;20061;-32
2023/12/22 10:24:43;;;;;;;3.92;1.30;;;;;;;;;;5053202;28;20041;-28
2023/12/22 10:27:10;;;;;;;2.83;1.15;;;;;;;;;;5052831;28;20475;-32
2023/12/22 10:29:37;;;;;;;2.20;1.20;;;;;;;;;;5053023;28;20647;-33
2023/12/22 10:32:05;;;;;;;4.90;1.30;;;;;;;;;;5052797;28;20469;-33
2023/12/22 10:34:32;;;;;;;3.35;1.40;;;;;;;;;;5053163;28;20056;-32
2023/12/22 10:37:00;;;;;;;3.17;1.38;;;;;;;;;;5061585;28;20044;-27
2023/12/22 10:42:14;;;;;;;2.53;1.10;;;20.90;48.20;;;;;;5791943;22;20041;-25
2023/12/22 10:44:41;;;;;;;1.75;1.00;;;21.00;48.30;;;;;;5047919;28;20485;-24
2023/12/22 10:47:08;;;;;;;2.70;1.20;;;21.00;51.80;;;;;;5053066;28;20049;-26
2023/12/22 10:49:35;;;;;;;2.45;1.20;;;21.00;57.40;;;;;;5050059;28;20091;-25
2023/12/22 10:52:02;;;;;;;2.60;1.48;;;;;;;;;;5053406;28;20053;-25
2023/12/22 10:54:29;;;;;;;2.47;1.10;;;;;;;;;;5052969;28;20053;-26
2023/12/22 10:56:56;;;;;;;3.13;1.23;;;;;;;;;;5052964;28;20102;-27
2023/12/22 10:59:25;;;;;;;2.10;1.10;;;;;;;;;;5047031;28;20116;-27
2023/12/22 11:01:53;;;;;;;3.97;1.27;;;;;;;;;;5033336;28;20138;-26
2023/12/22 11:04:22;;;;;;;3.33;1.42;;;;;;;;;;5015329;28;20119;-25
2023/12/22 11:06:50;;;;;;;2.28;1.15;;;;;;;;;;5029419;28;20045;-25
2023/12/22 11:09:18;;;;;;;3.58;1.40;;;21.10;74.10;;;;;;5033366;28;20099;-25
2023/12/22 11:11:45;;;;;;;2.72;1.25;;;;;;;;;;5032661;28;20494;-26
2023/12/22 11:14:12;;;;;;;2.40;1.15;;;;;;;;;;5032482;28;20449;-25
2023/12/22 11:16:41;;;;;;;2.80;1.30;;;;;;;;;;5032495;28;20041;-25
2023/12/22 11:19:07;;;;;;;3.65;1.30;;;20.90;73.70;;;;;;5032796;28;20506;-24
2023/12/22 11:21:35;;;;;;;4.20;1.40;;;;;;;;;;5034742;28;20103;-28
2023/12/22 11:24:01;;;;;;;1.83;1.00;;;20.90;73.10;;;;;;5032728;28;20046;-27
2023/12/22 11:26:28;;;;;;;2.92;1.30;;;20.90;73.90;;;;;;5033051;28;20053;-27
2023/12/22 11:28:55;;;;;;;2.28;1.17;;;;;;;;;;5033071;28;20057;-26
2023/12/22 11:31:23;;;;;;;3.78;1.20;;;;;;;;;;5032601;28;20095;-25
2023/12/22 11:33:51;;;;;;;2.38;1.10;;;;;;;;;;5032749;28;20053;-25
2023/12/22 11:36:19;;;;;;;4.07;1.50;;;;;;;;;;5032418;28;20510;-24
2023/12/22 11:38:46;;;;;;;2.25;1.00;;;20.70;66.20;;;;;;5032896;28;20100;-27
2023/12/22 11:41:15;;;;;;;2.45;1.10;;;20.70;48.40;;;;;;5032851;28;20090;-25
2023/12/22 11:43:42;;;;;;;2.78;1.10;;;21.50;51.20;;;;;;5029062;28;20053;-26
2023/12/22 11:46:09;;;;;;;2.88;1.25;;;20.60;73.60;;;;;;5031522;28;20045;-26
2023/12/22 11:48:36;;;;;;;2.45;1.10;;;;;;;;;;5031752;28;20042;-25
2023/12/22 11:51:10;;;;;;;2.58;1.20;;;20.70;48.40;;;;;;5031564;28;20046;-26
2023/12/22 11:53:37;;;;;;;2.10;1.02;;;20.00;74.10;;;;;;5031039;28;20087;-26
2023/12/22 11:56:05;;;;;;;2.17;1.10;;;;;;;;;;5031272;28;20080;-27
2023/12/22 11:58:35;;;;;;;3.00;1.17;;;;;;;;;;5031567;28;20049;-26
2023/12/22 12:01:03;;;;;;;2.53;1.00;;;;;;;;;;5031539;28;20355;-26
2023/12/22 12:03:31;;;;;;;4.72;1.20;;;20.80;48.40;;;;;;5031484;28;20075;-27
2023/12/22 12:06:15;;;;;;;2.38;1.15;;;20.80;48.40;;;;;;5031310;28;20466;-26
2023/12/22 12:08:42;;;;;;;1.95;1.00;;;22.00;74.40;;;;;;5029029;28;20083;-28
2023/12/22 12:11:09;;;;;;;4.10;1.27;;;20.80;73.80;;;;;;5031382;28;20084;-25
2023/12/22 12:13:36;;;;;;;4.03;1.80;;;;;;;;;;5031418;28;20041;-27
2023/12/22 12:16:04;;;;;;;2.15;1.10;;;;;;;;;;5028148;28;20099;-26
2023/12/22 12:18:31;;;;;;;2.35;1.25;;;;;;;;;;5031511;28;20148;-26
2023/12/22 12:20:58;;;;;;;2.72;1.10;;;20.00;73.70;;;;;;5046355;28;20083;-26
2023/12/22 12:23:27;;;;;;;4.72;1.38;;;;;;;;;;5051439;28;20103;-26
2023/12/22 12:25:54;;;;;;;1.75;1.15;;;21.60;74.00;;;;;;5050885;28;20579;-26
2023/12/22 12:28:26;;;;;;;2.58;1.08;;;20.90;48.50;;;;;;5051576;28;20049;-26
2023/12/22 12:30:58;;;;;;;3.17;1.10;;;20.90;48.50;;;;;;5051361;28;20092;-27
2023/12/22 12:33:25;;;;;;;6.45;1.55;;;;;;;;;;5051236;28;20080;-27
2023/12/22 12:35:53;;;;;;;3.35;1.17;;;20.80;74.00;;;;;;5050488;28;20094;-26
2023/12/22 12:38:20;;;;;;;4.90;1.23;;;;;;;;;;5051340;28;20045;-26
2023/12/22 12:40:49;;;;;;;3.45;1.20;;;20.90;48.40;;;;;;5050963;28;20106;-27
2023/12/22 12:43:16;;;;;;;2.83;1.48;;;;;;;;;;5012202;28;1131109;-26
2023/12/22 12:45:43;;;;;;;2.53;1.10;;;;;;;;;;5051694;28;20053;-26
2023/12/22 12:48:10;;;;;;;4.05;1.17;;;20.90;74.10;;;;;;5051877;28;20054;-26
2023/12/22 12:50:37;;;;;;;2.95;1.02;;;;;;;;;;5051463;28;20056;-26
2023/12/22 12:53:07;;;;;;;1.95;0.93;;;20.90;48.30;;;;;;5052013;28;20057;-26
2023/12/22 12:55:34;;;;;;;4.35;1.30;;;;;;;;;;5045477;28;20050;-27
2023/12/22 12:58:02;;;;;;;3.72;1.13;;;21.00;48.40;;;;;;5031747;28;20493;-26
2023/12/22 13:00:28;;;;;;;4.15;1.27;;;;;;;;;;5031493;28;20440;-27
2023/12/22 13:02:56;;;;;;;3.33;1.40;;;21.00;74.40;;;;;;5031811;28;20405;-26
2023/12/22 13:05:23;;;;;;;2.28;1.13;;;;;;;;;;5033397;28;20095;-26
2023/12/22 13:07:50;;;;;;;2.60;1.23;;;;;;;;;;5050570;28;20111;-26
2023/12/22 13:10:23;;;;;;;5.40;1.30;;;21.00;48.10;;;;;;5050629;28;20045;-27
2023/12/22 13:12:50;;;;;;;4.10;1.30;;;;;;;;;;5050090;28;20060;-26
2023/12/22 13:15:19;;;;;;;3.03;1.17;;;;;;;;;;5049993;28;20543;-26
2023/12/22 13:17:46;;;;;;;2.20;1.13;;;;;;;;;;5050053;28;20052;-26
2023/12/22 13:20:13;;;;;;;3.40;1.10;;;20.80;51.20;;;;;;5041768;28;20564;-26
2023/12/22 13:22:40;;;;;;;3.50;1.13;;;;;;;;;;5030376;28;20107;-26
2023/12/22 13:25:08;;;;;;;5.32;1.40;;;21.50;67.80;;;;;;5030510;28;20489;-26
2023/12/22 13:27:45;;;;;;;3.53;1.33;;;;;;;;;;5030627;28;20689;-27
2023/12/22 13:30:12;;;;;;;3.67;1.15;;;21.70;74.50;;;;;;5030580;28;20045;-26
2023/12/22 13:32:41;;;;;;;2.90;1.40;;;;;;;;;;5030331;28;20460;-27
2023/12/22 13:35:08;;;;;;;1.50;1.00;;;20.70;71.10;;;;;;5030399;28;20085;-26
2023/12/22 13:37:35;;;;;;;2.25;1.10;;;;;;;;;;5044178;28;20057;-27
2023/12/22 13:40:02;;;;;;;4.57;1.30;;;;;;;;;;5050195;28;20115;-26
2023/12/22 13:42:29;;;;;;;3.40;1.38;;;;;;;;;;5050421;28;20045;-26
2023/12/22 13:44:56;;;;;;;4.03;1.67;;;20.70;73.90;;;;;;5050281;28;20111;-26
2023/12/22 13:47:23;;;;;;;2.25;0.90;;;;;;;;;;5049600;28;20052;-27
2023/12/22 13:49:52;;;;;;;2.45;1.20;;;20.60;48.50;;;;;;5050676;28;20075;-26
2023/12/22 13:52:29;;;;;;;2.50;1.10;;;20.60;48.50;;;;;;5050148;28;20052;-26
2023/12/22 13:54:58;;;;;;;2.58;1.05;;;;;;;;;;5049966;28;20695;-26
2023/12/22 13:57:25;;;;;;;2.38;1.00;;;20.50;74.10;;;;;;5049937;28;20413;-26
2023/12/22 13:59:52;;;;;;;3.17;1.55;;;21.60;61.10;;;;;;5050472;28;20053;-26
2023/12/22 14:02:22;;;;;;;2.83;1.20;;;20.60;48.60;;;;;;5050180;28;20049;-26
2023/12/22 14:04:50;;;;;;;2.35;1.00;;;;;;;;;;5050370;28;20080;-24